Time;durP1;ratioP1;P1;durP2;ratioP2;P2;SDS_P1;SDS_P2;PMS_P1;PMS_P2;Temp;Humidity;BMP_temperature;BMP_pressure;BME280_temperature;BME280_humidity;BME280_pressure;Samples;Min_cycle;Max_cycle;Signal;HPM_P1;HPM_P2
2023/07/06 00:01:02;;;;;;;2.22;1.85;;;20.10;93.70;;;;;;5072689;28;20189;-73
2023/07/06 00:03:30;;;;;;;3.75;2.50;;;;;;;;;;5071528;28;20190;-73
2023/07/06 00:05:57;;;;;;;3.10;2.40;;;;;;;;;;5053045;28;20175;-72
2023/07/06 00:08:23;;;;;;;3.95;3.65;;;;;;;;;;5068807;28;20214;-73
2023/07/06 00:10:49;;;;;;;14.00;12.82;;;20.10;94.90;;;;;;5070033;28;20611;-73
2023/07/06 00:13:16;;;;;;;1.40;1.30;;;20.00;95.10;;;;;;5067282;28;20185;-73
2023/07/06 00:15:43;;;;;;;4.85;2.42;;;20.00;95.00;;;;;;5067988;28;20187;-73
2023/07/06 00:18:10;;;;;;;1.83;1.73;;;20.10;94.00;;;;;;5051920;28;20589;-73
2023/07/06 00:20:39;;;;;;;4.10;1.95;;;20.10;93.60;;;;;;5077496;28;20648;-73
2023/07/06 00:23:05;;;;;;;3.13;2.13;;;20.20;93.20;;;;;;5068900;28;20179;-73
2023/07/06 00:25:33;;;;;;;24.25;8.73;;;;;;;;;;5074852;28;20277;-73
2023/07/06 00:28:03;;;;;;;23.45;14.52;;;20.30;92.70;;;;;;5052131;28;20264;-73
2023/07/06 00:33:12;;;;;;;11.27;10.18;;;;;;;;;;5062635;28;20187;-73
2023/07/06 00:35:42;;;;;;;1.90;1.75;;;20.30;92.60;;;;;;5069222;28;20189;-73
2023/07/06 00:38:14;;;;;;;3.15;2.63;;;;;;;;;;5069121;28;20175;-73
2023/07/06 00:40:41;;;;;;;9.35;5.85;;;;;;;;;;5074043;28;20206;-72
2023/07/06 00:43:11;;;;;;;40.08;35.28;;;;;;;;;;5072896;28;20648;-73
2023/07/06 00:45:38;;;;;;;34.60;25.23;;;;;;;;;;5068190;28;20191;-73
2023/07/06 00:48:04;;;;;;;156.38;66.10;;;;;;;;;;5070081;28;20244;-73
2023/07/06 00:50:31;;;;;;;1.40;1.30;;;20.40;92.50;;;;;;5074021;28;20174;-73
2023/07/06 00:53:08;;;;;;;24.85;21.70;;;20.40;92.60;;;;;;5061048;28;20218;-73
2023/07/06 00:55:40;;;;;;;1.60;1.50;;;;;;;;;;5078335;28;20637;-73
2023/07/06 00:58:24;;;;;;;3.63;2.20;;;20.30;92.80;;;;;;5069462;28;20199;-73
2023/07/06 01:00:54;;;;;;;1.88;1.73;;;20.30;92.80;;;;;;5067479;28;20211;-73
2023/07/06 01:03:20;;;;;;;2.25;1.20;;;;;;;;;;5071335;28;20186;-73
2023/07/06 01:05:48;;;;;;;2.55;1.63;;;20.30;92.90;;;;;;5076376;28;20189;-73
2023/07/06 01:08:19;;;;;;;1.30;1.30;;;20.30;93.00;;;;;;5068459;28;20263;-74
2023/07/06 01:10:46;;;;;;;2.08;1.45;;;20.30;92.90;;;;;;5067857;28;20224;-74
2023/07/06 01:13:12;;;;;;;1.75;1.65;;;;;;;;;;5070679;28;20197;-73
2023/07/06 01:15:56;;;;;;;1.65;1.55;;;20.30;92.90;;;;;;5070642;28;20213;-73
2023/07/06 01:18:36;;;;;;;1.10;1.10;;;20.30;92.90;;;;;;5067837;28;20182;-73
2023/07/06 01:21:16;;;;;;;1.98;1.20;;;20.30;92.90;;;;;;5077200;28;20576;-73
2023/07/06 01:23:42;;;;;;;1.48;1.38;;;;;;;;;;5075007;28;20189;-73
2023/07/06 01:26:10;;;;;;;1.50;1.40;;;20.30;93.00;;;;;;5069406;28;20183;-73
2023/07/06 01:29:01;;;;;;;1.27;1.27;;;20.30;92.90;;;;;;5078188;28;20651;-73
2023/07/06 01:31:30;;;;;;;1.42;1.35;;;20.30;93.00;;;;;;5062428;28;20211;-73
2023/07/06 01:34:31;;;;;;;1.50;1.40;;;20.30;93.00;;;;;;5069770;28;20193;-72
2023/07/06 01:37:12;;;;;;;1.77;1.67;;;20.30;93.00;;;;;;5049976;28;20190;-73
2023/07/06 01:39:38;;;;;;;1.77;1.67;;;;;;;;;;5076889;28;20296;-74
2023/07/06 01:42:12;;;;;;;1.55;1.55;;;20.20;93.10;;;;;;5072597;28;20187;-73
2023/07/06 01:44:47;;;;;;;1.70;1.60;;;20.20;93.50;;;;;;5051193;28;20186;-74
2023/07/06 01:47:16;;;;;;;1.90;1.48;;;20.10;93.80;;;;;;5068659;28;20171;-73
2023/07/06 01:49:42;;;;;;;2.38;1.92;;;20.10;93.90;;;;;;5048971;28;20644;-71
2023/07/06 01:52:16;;;;;;;1.60;1.50;;;20.10;93.70;;;;;;5069745;28;20218;-72
2023/07/06 01:54:58;;;;;;;1.42;1.33;;;20.00;94.10;;;;;;5074806;28;20264;-73
2023/07/06 01:57:51;;;;;;;1.30;1.30;;;20.00;94.00;;;;;;5068645;28;20258;-73
2023/07/06 02:00:19;;;;;;;4.65;1.50;;;20.00;93.90;;;;;;5075462;28;20219;-73
2023/07/06 02:02:51;;;;;;;1.52;1.42;;;20.00;94.00;;;;;;5056692;28;20281;-73
2023/07/06 02:05:19;;;;;;;1.48;1.40;;;20.00;93.90;;;;;;5074575;28;20186;-73
2023/07/06 02:07:45;;;;;;;1.77;1.70;;;19.90;94.30;;;;;;5076201;28;20181;-73
2023/07/06 02:10:16;;;;;;;1.40;1.30;;;19.90;94.10;;;;;;5074726;28;20174;-73
2023/07/06 02:12:43;;;;;;;1.90;1.80;;;19.90;94.10;;;;;;5072751;28;20252;-73
2023/07/06 02:15:10;;;;;;;0.90;0.90;;;19.90;94.10;;;;;;5053837;28;20179;-73
2023/07/06 02:17:36;;;;;;;2.05;1.95;;;;;;;;;;5052963;28;20236;-73
2023/07/06 02:20:02;;;;;;;1.60;1.50;;;19.90;94.10;;;;;;5073748;28;20211;-74
2023/07/06 02:22:28;;;;;;;1.35;1.35;;;;;;;;;;5060278;28;20195;-74
2023/07/06 02:24:55;;;;;;;1.38;1.38;;;;;;;;;;5074779;28;20179;-73
2023/07/06 02:27:21;;;;;;;1.08;1.08;;;;;;;;;;5074737;28;20210;-73
2023/07/06 02:29:47;;;;;;;1.00;1.00;;;19.90;94.10;;;;;;5079254;28;20189;-72
2023/07/06 02:32:14;;;;;;;1.63;1.52;;;;;;;;;;5071277;28;20581;-74
2023/07/06 02:34:40;;;;;;;1.05;1.05;;;19.90;94.20;;;;;;5072414;28;20182;-73
2023/07/06 02:37:06;;;;;;;1.15;1.15;;;;;;;;;;5055645;28;20187;-73
2023/07/06 02:39:32;;;;;;;1.25;1.25;;;;;;;;;;5075661;28;20248;-73
2023/07/06 02:41:58;;;;;;;1.50;1.40;;;;;;;;;;5075741;28;20194;-72
2023/07/06 02:44:24;;;;;;;1.45;1.45;;;19.70;95.40;;;;;;5072158;28;20175;-72
2023/07/06 02:46:50;;;;;;;1.92;1.83;;;;;;;;;;5069516;28;20182;-73
2023/07/06 02:49:16;;;;;;;1.08;1.08;;;19.80;95.00;;;;;;5073054;28;20183;-72
2023/07/06 02:51:42;;;;;;;1.80;1.70;;;19.80;95.00;;;;;;5069576;28;20204;-73
2023/07/06 02:54:10;;;;;;;2.28;1.75;;;19.80;94.90;;;;;;5076683;28;20181;-73
2023/07/06 02:56:35;;;;;;;1.83;1.73;;;19.80;95.00;;;;;;5051107;28;20175;-73
2023/07/06 02:59:01;;;;;;;1.42;1.42;;;;;;;;;;5073670;28;20761;-73
2023/07/06 03:01:29;;;;;;;1.10;1.10;;;;;;;;;;5070696;28;20179;-73
2023/07/06 03:03:55;;;;;;;1.55;1.50;;;;;;;;;;5073754;28;20284;-73
2023/07/06 03:06:21;;;;;;;1.45;1.42;;;;;;;;;;5070202;28;20191;-74
2023/07/06 03:08:47;;;;;;;1.60;1.50;;;;;;;;;;5076262;28;20686;-73
2023/07/06 03:11:14;;;;;;;1.80;1.67;;;19.70;95.00;;;;;;5073799;28;20179;-74
2023/07/06 03:13:40;;;;;;;1.23;1.05;;;19.80;94.90;;;;;;5057536;28;20190;-74
2023/07/06 03:16:07;;;;;;;1.60;1.45;;;19.80;95.00;;;;;;5071077;28;20186;-72
2023/07/06 03:18:33;;;;;;;1.35;1.30;;;19.80;94.90;;;;;;5061157;28;20190;-72
2023/07/06 03:21:00;;;;;;;1.15;1.13;;;;;;;;;;5074415;28;20245;-74
2023/07/06 03:23:27;;;;;;;1.40;1.23;;;19.60;95.30;;;;;;5075583;28;20189;-74
2023/07/06 03:25:53;;;;;;;1.88;1.67;;;19.60;95.30;;;;;;5053773;28;20210;-73
2023/07/06 03:28:38;;;;;;;1.70;1.60;;;19.60;95.00;;;;;;5082070;28;20186;-72
2023/07/06 03:31:04;;;;;;;1.40;1.40;;;;;;;;;;5068743;28;20193;-73
2023/07/06 03:33:30;;;;;;;4.85;1.65;;;;;;;;;;5070485;28;20176;-73
2023/07/06 03:35:58;;;;;;;1.50;1.40;;;19.60;94.90;;;;;;5070073;28;20261;-72
2023/07/06 03:38:29;;;;;;;1.58;1.55;;;19.60;94.70;;;;;;5077655;28;20181;-73
2023/07/06 03:40:56;;;;;;;1.90;1.63;;;;;;;;;;5071876;28;20206;-72
2023/07/06 03:43:22;;;;;;;1.73;1.63;;;19.50;96.00;;;;;;5056711;28;20210;-72
2023/07/06 03:45:48;;;;;;;2.13;2.03;;;19.40;96.10;;;;;;5069992;28;20209;-73
2023/07/06 03:48:15;;;;;;;3.17;2.38;;;19.40;96.30;;;;;;5069077;28;20239;-72
2023/07/06 03:50:43;;;;;;;1.85;1.75;;;19.40;96.40;;;;;;5078775;28;20202;-73
2023/07/06 03:53:09;;;;;;;1.73;1.73;;;19.40;96.30;;;;;;5072585;28;20179;-73
2023/07/06 03:55:35;;;;;;;1.55;1.45;;;19.50;96.00;;;;;;5050773;28;20175;-73
2023/07/06 03:58:01;;;;;;;1.60;1.52;;;19.50;96.00;;;;;;5069248;28;20179;-74
2023/07/06 04:00:28;;;;;;;2.47;2.28;;;19.60;95.90;;;;;;5070367;28;20588;-73
2023/07/06 04:03:00;;;;;;;2.00;1.85;;;19.60;95.90;;;;;;5073282;28;20193;-73
2023/07/06 04:05:36;;;;;;;2.13;1.95;;;19.50;95.80;;;;;;5052994;28;20616;-73
2023/07/06 04:08:06;;;;;;;2.50;1.75;;;19.60;95.60;;;;;;5065003;28;21681;-72
2023/07/06 04:10:33;;;;;;;1.17;1.17;;;19.60;95.60;;;;;;5075438;28;20194;-73
2023/07/06 04:12:59;;;;;;;1.55;1.50;;;;;;;;;;5051941;28;20706;-73
2023/07/06 04:15:26;;;;;;;1.52;1.52;;;19.70;95.20;;;;;;5057005;28;20239;-74
2023/07/06 04:17:55;;;;;;;1.40;1.40;;;;;;;;;;5067622;28;20194;-73
2023/07/06 04:20:27;;;;;;;1.58;1.50;;;19.70;95.30;;;;;;5068490;28;20283;-72
2023/07/06 04:22:55;;;;;;;5.60;1.52;;;19.70;95.20;;;;;;5068755;28;20175;-73
2023/07/06 04:25:26;;;;;;;1.70;1.60;;;19.80;95.20;;;;;;5073029;28;20186;-73
2023/07/06 04:27:52;;;;;;;3.05;1.75;;;19.80;95.10;;;;;;5048046;28;20191;-73
2023/07/06 04:30:20;;;;;;;2.22;2.13;;;;;;;;;;5065379;28;20218;-72
2023/07/06 04:32:48;;;;;;;1.45;1.30;;;19.90;94.90;;;;;;5070957;28;20182;-72
2023/07/06 04:35:16;;;;;;;2.00;1.90;;;20.00;95.10;;;;;;5054548;28;20605;-73
2023/07/06 04:37:45;;;;;;;1.67;1.58;;;20.00;94.70;;;;;;5068753;28;20574;-72
2023/07/06 04:40:13;;;;;;;1.23;1.23;;;20.20;94.40;;;;;;5069749;28;20612;-72
2023/07/06 04:42:42;;;;;;;1.35;1.35;;;20.20;94.20;;;;;;5068996;28;20633;-72
2023/07/06 04:45:09;;;;;;;1.20;1.10;;;20.30;94.10;;;;;;5069179;28;20179;-73
2023/07/06 04:47:39;;;;;;;1.65;1.55;;;20.30;93.50;;;;;;5074593;28;20177;-72
2023/07/06 04:50:17;;;;;;;1.67;1.58;;;20.40;93.20;;;;;;5050748;28;20257;-77
2023/07/06 04:52:44;;;;;;;1.85;1.75;;;20.40;93.20;;;;;;5051307;28;20651;-73
2023/07/06 04:55:10;;;;;;;1.48;1.42;;;;;;;;;;5066856;28;20602;-74
2023/07/06 04:57:36;;;;;;;2.20;1.85;;;20.50;93.10;;;;;;5072505;28;20174;-73
2023/07/06 05:00:12;;;;;;;1.42;1.42;;;20.50;92.90;;;;;;5067707;28;20213;-73
2023/07/06 05:02:38;;;;;;;1.65;1.55;;;;;;;;;;5066686;28;20590;-73
2023/07/06 05:05:05;;;;;;;1.02;1.02;;;20.60;93.00;;;;;;5070919;28;20178;-72
2023/07/06 05:07:32;;;;;;;2.03;1.85;;;;;;;;;;5049724;28;20237;-73
2023/07/06 05:09:58;;;;;;;1.20;1.20;;;20.70;92.90;;;;;;5068605;28;20183;-72
2023/07/06 05:12:24;;;;;;;1.60;1.50;;;;;;;;;;5050911;28;20720;-73
2023/07/06 05:14:52;;;;;;;1.95;1.85;;;;;;;;;;5069278;28;20179;-74
2023/07/06 05:17:18;;;;;;;1.60;1.50;;;20.90;92.80;;;;;;5068434;28;21299;-72
2023/07/06 05:19:45;;;;;;;1.63;1.55;;;;;;;;;;5071977;28;20210;-73
2023/07/06 05:22:12;;;;;;;2.10;2.00;;;20.90;92.50;;;;;;5052278;28;20183;-71
2023/07/06 05:24:39;;;;;;;1.98;1.67;;;20.80;92.40;;;;;;5057690;28;20737;-73
2023/07/06 05:27:06;;;;;;;1.25;1.25;;;20.80;92.30;;;;;;5053047;28;20309;-72
2023/07/06 05:29:32;;;;;;;2.10;2.03;;;20.90;92.50;;;;;;5066427;28;20187;-72
2023/07/06 05:31:57;;;;;;;1.95;1.85;;;21.00;92.50;;;;;;5067629;28;20179;-72
2023/07/06 05:34:24;;;;;;;2.40;2.30;;;;;;;;;;5058677;28;20216;-73
2023/07/06 05:36:50;;;;;;;1.65;1.55;;;;;;;;;;5067618;28;20718;-73
2023/07/06 05:39:15;;;;;;;1.63;1.52;;;21.20;92.00;;;;;;5065551;28;20195;-72
2023/07/06 05:41:43;;;;;;;2.03;1.88;;;;;;;;;;5068708;28;20193;-73
2023/07/06 05:44:09;;;;;;;1.67;1.67;;;;;;;;;;5071272;28;20175;-73
2023/07/06 05:46:35;;;;;;;1.95;1.85;;;21.30;91.30;;;;;;5068502;28;20185;-74
2023/07/06 05:49:01;;;;;;;2.85;2.65;;;;;;;;;;5068835;28;20174;-73
2023/07/06 05:51:27;;;;;;;1.80;1.70;;;;;;;;;;5071829;28;20179;-73
2023/07/06 05:53:53;;;;;;;3.92;2.25;;;;;;;;;;5072983;28;20179;-73
2023/07/06 05:56:21;;;;;;;2.15;2.00;;;21.40;90.50;;;;;;5071621;28;20205;-73
2023/07/06 05:58:47;;;;;;;2.45;1.58;;;21.40;90.30;;;;;;5052248;28;20190;-74
2023/07/06 06:01:13;;;;;;;2.78;2.22;;;;;;;;;;5079449;28;20182;-73
2023/07/06 06:03:40;;;;;;;1.70;1.63;;;;;;;;;;5071599;28;20179;-73
2023/07/06 06:06:06;;;;;;;1.45;1.42;;;21.50;90.10;;;;;;5072658;28;20203;-73
2023/07/06 06:08:32;;;;;;;1.98;1.88;;;;;;;;;;5071261;28;20270;-73
2023/07/06 06:11:00;;;;;;;1.60;1.60;;;21.60;90.30;;;;;;5077566;28;20183;-73
2023/07/06 06:13:30;;;;;;;1.52;1.52;;;21.60;90.20;;;;;;5076762;28;20185;-73
2023/07/06 06:15:57;;;;;;;2.28;2.08;;;21.50;90.30;;;;;;5055898;28;20198;-72
2023/07/06 06:18:24;;;;;;;3.70;2.08;;;21.60;90.30;;;;;;5072006;28;20171;-72
2023/07/06 06:20:51;;;;;;;1.50;1.50;;;;;;;;;;5062434;28;20301;-73
2023/07/06 06:23:20;;;;;;;1.98;1.88;;;21.70;90.40;;;;;;5061402;28;20182;-72
2023/07/06 06:25:49;;;;;;;2.25;2.15;;;21.60;90.70;;;;;;5072165;28;20190;-73
2023/07/06 06:28:16;;;;;;;1.60;1.50;;;;;;;;;;5083415;28;20174;-73
2023/07/06 06:30:42;;;;;;;2.50;2.33;;;21.70;90.40;;;;;;5074685;28;20244;-74
2023/07/06 06:33:07;;;;;;;1.90;1.77;;;21.60;90.60;;;;;;5073757;28;20194;-73
2023/07/06 06:35:34;;;;;;;1.92;1.92;;;21.50;90.90;;;;;;5074803;28;20183;-73
2023/07/06 06:38:03;;;;;;;1.52;1.52;;;21.60;90.40;;;;;;5071972;28;20183;-73
2023/07/06 06:40:30;;;;;;;1.88;1.77;;;21.70;90.50;;;;;;5058686;28;20195;-74
2023/07/06 06:42:57;;;;;;;2.47;2.08;;;21.60;90.90;;;;;;5072004;28;20366;-73
2023/07/06 06:45:23;;;;;;;2.10;2.00;;;21.60;90.50;;;;;;5071792;28;20186;-74
2023/07/06 06:47:50;;;;;;;1.88;1.77;;;21.80;90.60;;;;;;5071497;28;20189;-74
2023/07/06 06:50:20;;;;;;;1.60;1.60;;;21.90;90.40;;;;;;5053859;28;20525;-73
2023/07/06 06:52:46;;;;;;;1.63;1.63;;;22.00;90.30;;;;;;5071409;28;20175;-73
2023/07/06 06:55:13;;;;;;;4.03;2.28;;;22.10;90.20;;;;;;5069288;28;20282;-73
2023/07/06 06:57:39;;;;;;;2.10;1.80;;;22.20;89.20;;;;;;5058047;28;20187;-72
2023/07/06 07:00:09;;;;;;;1.30;1.30;;;22.20;87.90;;;;;;5071472;28;20206;-73
2023/07/06 07:02:35;;;;;;;2.00;1.83;;;;;;;;;;5071721;28;20179;-74
2023/07/06 07:05:01;;;;;;;1.75;1.63;;;;;;;;;;5071383;28;20183;-74
2023/07/06 07:07:27;;;;;;;1.73;1.60;;;22.40;88.20;;;;;;5071592;28;20232;-74
2023/07/06 07:09:53;;;;;;;1.85;1.73;;;22.50;88.10;;;;;;5071093;28;20615;-74
2023/07/06 07:12:20;;;;;;;2.95;2.10;;;22.60;88.10;;;;;;5071536;28;20290;-73
2023/07/06 07:14:45;;;;;;;4.25;1.92;;;22.70;87.80;;;;;;5071246;28;20167;-74
2023/07/06 07:17:13;;;;;;;1.50;1.48;;;22.80;87.20;;;;;;5055251;28;20251;-74
2023/07/06 07:19:39;;;;;;;1.98;1.80;;;22.80;86.50;;;;;;5076084;28;20204;-74
2023/07/06 07:22:05;;;;;;;2.25;1.73;;;22.80;86.20;;;;;;5066091;28;20183;-74
2023/07/06 07:24:32;;;;;;;1.38;1.38;;;22.90;85.70;;;;;;5076735;28;20805;-75
2023/07/06 07:27:00;;;;;;;1.48;1.48;;;23.00;85.60;;;;;;5071183;28;20199;-74
2023/07/06 07:29:26;;;;;;;2.90;1.35;;;23.00;84.40;;;;;;5071139;28;20187;-74
2023/07/06 07:31:52;;;;;;;1.92;1.83;;;23.00;84.20;;;;;;5070899;28;20718;-74
2023/07/06 07:34:19;;;;;;;1.27;1.17;;;23.00;84.40;;;;;;5070947;28;20179;-73
2023/07/06 07:36:45;;;;;;;1.33;1.33;;;23.10;84.50;;;;;;5071065;28;20180;-74
2023/07/06 07:39:11;;;;;;;1.35;1.35;;;23.20;84.70;;;;;;5070731;28;20211;-75
2023/07/06 07:41:37;;;;;;;1.50;1.42;;;23.30;84.50;;;;;;5070629;28;20182;-74
2023/07/06 07:44:03;;;;;;;1.85;1.73;;;23.30;82.80;;;;;;5070547;28;20537;-74
2023/07/06 07:46:29;;;;;;;1.88;1.77;;;23.40;83.40;;;;;;5070576;28;20193;-73
2023/07/06 07:48:56;;;;;;;1.73;1.63;;;23.50;83.60;;;;;;5073336;28;20175;-73
2023/07/06 07:51:24;;;;;;;1.73;1.63;;;23.50;84.00;;;;;;5070534;28;20187;-73
2023/07/06 07:53:53;;;;;;;2.25;1.90;;;23.70;82.70;;;;;;5070457;28;20175;-73
2023/07/06 07:56:19;;;;;;;1.70;1.60;;;23.80;83.10;;;;;;5053584;28;20251;-73
2023/07/06 07:58:48;;;;;;;2.08;1.98;;;23.80;82.60;;;;;;5070020;28;20198;-73
2023/07/06 08:01:18;;;;;;;1.58;1.58;;;23.80;83.10;;;;;;5052318;28;20208;-73
2023/07/06 08:03:44;;;;;;;2.97;2.53;;;23.90;83.50;;;;;;5066545;28;20227;-74
2023/07/06 08:06:16;;;;;;;1.48;1.38;;;24.00;83.70;;;;;;5073157;28;20183;-73
2023/07/06 08:08:43;;;;;;;2.50;2.30;;;24.10;83.20;;;;;;5052212;28;20343;-74
2023/07/06 08:11:15;;;;;;;1.85;1.75;;;24.20;81.60;;;;;;5052150;28;20171;-73
2023/07/06 08:13:41;;;;;;;2.22;2.13;;;;;;;;;;5070198;28;20572;-74
2023/07/06 08:16:08;;;;;;;1.77;1.67;;;24.40;80.40;;;;;;5070203;28;20183;-74
2023/07/06 08:18:36;;;;;;;1.67;1.65;;;24.50;81.70;;;;;;5073470;28;20648;-74
2023/07/06 08:21:03;;;;;;;1.73;1.73;;;;;;;;;;5055321;28;20199;-74
2023/07/06 08:23:29;;;;;;;4.57;1.92;;;24.60;80.30;;;;;;5071960;28;20181;-74
2023/07/06 08:25:56;;;;;;;1.85;1.80;;;24.80;80.60;;;;;;5071424;28;20166;-73
2023/07/06 08:28:24;;;;;;;1.35;1.33;;;24.90;80.70;;;;;;5053557;28;20189;-74
2023/07/06 08:30:52;;;;;;;2.17;2.00;;;25.10;81.50;;;;;;5069717;28;20187;-74
2023/07/06 08:33:21;;;;;;;1.60;1.50;;;25.20;80.90;;;;;;5069932;28;20175;-74
2023/07/06 08:35:49;;;;;;;1.95;1.77;;;25.40;80.70;;;;;;5069749;28;20179;-74
2023/07/06 08:38:14;;;;;;;4.78;2.03;;;25.50;80.30;;;;;;5069806;28;20660;-74
2023/07/06 08:40:42;;;;;;;2.72;2.05;;;25.70;79.40;;;;;;5069565;28;20209;-74
2023/07/06 08:43:20;;;;;;;2.05;1.95;;;25.90;76.80;;;;;;5069788;28;20214;-73
2023/07/06 08:45:52;;;;;;;1.75;1.65;;;25.80;76.80;;;;;;5069434;28;20182;-73
2023/07/06 08:48:21;;;;;;;2.13;2.03;;;25.90;75.70;;;;;;5069478;28;20182;-73
2023/07/06 08:50:56;;;;;;;2.20;2.10;;;25.90;76.50;;;;;;5069912;28;20179;-74
2023/07/06 08:53:27;;;;;;;2.35;2.25;;;26.00;77.20;;;;;;5069149;28;20327;-73
2023/07/06 08:55:54;;;;;;;2.25;2.13;;;26.10;77.20;;;;;;5069896;28;20179;-73
2023/07/06 08:58:29;;;;;;;1.85;1.85;;;26.30;78.80;;;;;;5069245;28;20201;-73
2023/07/06 09:01:11;;;;;;;1.63;1.52;;;26.40;78.40;;;;;;5069207;28;20218;-73
2023/07/06 09:03:44;;;;;;;2.08;1.98;;;26.60;77.40;;;;;;5069585;28;20660;-73
2023/07/06 09:06:18;;;;;;;3.03;2.63;;;26.60;77.50;;;;;;5073222;28;20170;-74
2023/07/06 09:08:45;;;;;;;2.50;2.40;;;26.80;77.90;;;;;;5069412;28;20224;-74
2023/07/06 09:11:15;;;;;;;3.05;2.95;;;27.00;77.40;;;;;;5069514;28;20179;-73
2023/07/06 09:13:49;;;;;;;3.20;3.00;;;27.00;74.30;;;;;;5072737;28;20197;-74
2023/07/06 09:16:19;;;;;;;3.08;2.85;;;27.10;75.10;;;;;;5071454;28;20818;-72
2023/07/06 09:18:46;;;;;;;7.85;2.72;;;27.20;74.60;;;;;;5055379;28;20261;-74
2023/07/06 09:21:12;;;;;;;3.25;3.10;;;27.30;76.00;;;;;;5073523;28;20186;-73
2023/07/06 09:23:38;;;;;;;3.90;2.92;;;27.50;73.60;;;;;;5060718;28;20183;-74
2023/07/06 09:26:08;;;;;;;3.03;2.58;;;27.60;73.50;;;;;;5073457;28;20175;-74
2023/07/06 09:28:34;;;;;;;2.67;2.58;;;27.80;74.10;;;;;;5076565;28;20178;-73
2023/07/06 09:31:21;;;;;;;2.97;2.85;;;28.00;73.00;;;;;;5073394;28;20613;-74
2023/07/06 09:33:48;;;;;;;2.97;2.88;;;28.30;72.70;;;;;;5058782;28;20186;-74
2023/07/06 09:36:19;;;;;;;3.40;2.83;;;28.60;71.50;;;;;;5073429;28;20171;-75
2023/07/06 09:38:45;;;;;;;3.17;3.08;;;28.80;71.50;;;;;;5055818;28;20174;-74
2023/07/06 09:41:43;;;;;;;2.90;2.80;;;29.10;70.20;;;;;;5073273;28;20210;-74
2023/07/06 09:44:24;;;;;;;3.00;2.90;;;29.40;69.10;;;;;;5072162;28;20186;-74
2023/07/06 09:46:49;;;;;;;2.78;2.67;;;29.60;68.60;;;;;;5069189;28;20183;-74
2023/07/06 09:49:20;;;;;;;3.10;2.90;;;29.90;67.40;;;;;;5078269;28;20723;-74
2023/07/06 09:51:58;;;;;;;2.80;2.70;;;29.90;66.60;;;;;;5054934;28;20185;-74
2023/07/06 09:54:31;;;;;;;3.28;3.10;;;30.00;67.40;;;;;;5072896;28;20171;-74
2023/07/06 09:56:57;;;;;;;3.03;2.90;;;30.10;67.20;;;;;;5072660;28;20618;-74
2023/07/06 09:59:23;;;;;;;3.17;3.08;;;30.20;67.20;;;;;;5072615;28;20222;-74
2023/07/06 10:02:23;;;;;;;3.08;2.88;;;30.30;66.80;;;;;;5072213;28;20186;-74
2023/07/06 10:05:13;;;;;;;3.40;3.03;;;30.30;66.60;;;;;;5070605;28;20698;-74
2023/07/06 10:07:52;;;;;;;2.75;2.65;;;30.30;66.80;;;;;;5072381;28;20194;-74
2023/07/06 10:10:43;;;;;;;3.13;2.92;;;30.30;69.40;;;;;;5067365;28;20224;-74
2023/07/06 10:13:36;;;;;;;2.70;2.60;;;30.40;65.20;;;;;;5072193;28;20637;-73
2023/07/06 10:16:16;;;;;;;2.35;2.25;;;30.50;65.90;;;;;;5069320;28;20174;-73
2023/07/06 10:18:49;;;;;;;3.58;2.88;;;30.80;64.80;;;;;;5072102;28;20280;-74
2023/07/06 10:21:20;;;;;;;3.17;3.08;;;31.10;65.10;;;;;;5071872;28;20186;-74
2023/07/06 10:24:12;;;;;;;2.78;2.58;;;31.40;64.30;;;;;;5053715;28;20178;-75
2023/07/06 10:26:47;;;;;;;3.13;2.88;;;31.60;66.10;;;;;;5066592;28;20179;-73
2023/07/06 10:29:18;;;;;;;2.90;2.80;;;31.60;63.60;;;;;;5053890;28;20186;-74
2023/07/06 10:31:51;;;;;;;3.40;3.10;;;31.50;64.40;;;;;;5065034;28;20178;-75
2023/07/06 10:34:39;;;;;;;2.55;2.45;;;31.40;63.30;;;;;;5043276;28;20195;-72
2023/07/06 10:37:06;;;;;;;2.60;2.47;;;31.20;66.00;;;;;;5065970;28;20228;-74
2023/07/06 10:39:32;;;;;;;2.97;2.78;;;31.00;67.80;;;;;;5068535;28;20214;-74
2023/07/06 10:42:18;;;;;;;3.22;3.13;;;30.70;67.40;;;;;;5068677;28;20256;-75
2023/07/06 10:44:46;;;;;;;2.65;2.53;;;30.60;67.40;;;;;;5071801;28;20178;-75
2023/07/06 10:47:43;;;;;;;4.53;2.70;;;30.60;66.00;;;;;;5076257;28;20679;-75
2023/07/06 10:50:19;;;;;;;2.97;2.78;;;30.60;65.30;;;;;;5055271;28;20190;-75
2023/07/06 10:53:07;;;;;;;2.65;2.65;;;30.50;66.60;;;;;;5069790;28;20186;-74
2023/07/06 10:55:36;;;;;;;2.83;2.72;;;30.50;63.60;;;;;;5067810;28;20197;-74
2023/07/06 10:58:27;;;;;;;3.75;3.65;;;30.60;65.20;;;;;;5070738;28;20266;-74
2023/07/06 11:00:57;;;;;;;3.03;2.95;;;30.60;65.20;;;;;;5057270;28;20214;-74
2023/07/06 11:03:32;;;;;;;2.95;2.80;;;30.60;65.00;;;;;;5069562;28;20211;-74
2023/07/06 11:06:13;;;;;;;3.35;3.15;;;30.30;67.10;;;;;;5069958;28;20632;-74
2023/07/06 11:08:57;;;;;;;3.90;3.70;;;30.20;65.80;;;;;;5063236;28;20178;-74
2023/07/06 11:11:27;;;;;;;4.32;3.50;;;29.80;67.90;;;;;;5073060;28;20241;-74
2023/07/06 11:13:53;;;;;;;4.18;3.03;;;29.50;70.10;;;;;;5071556;28;20267;-74
2023/07/06 11:16:47;;;;;;;3.40;3.22;;;29.60;69.10;;;;;;5068956;28;20678;-75
2023/07/06 11:19:20;;;;;;;3.35;3.25;;;29.80;67.50;;;;;;5071351;28;20264;-74
2023/07/06 11:21:51;;;;;;;3.20;3.10;;;30.30;68.60;;;;;;5067649;28;20584;-75
2023/07/06 11:24:21;;;;;;;4.60;4.30;;;30.70;67.60;;;;;;5065124;28;20189;-73
2023/07/06 11:26:53;;;;;;;2.75;2.65;;;31.30;69.00;;;;;;5068348;28;20545;-74
2023/07/06 11:29:21;;;;;;;3.65;3.45;;;32.00;66.90;;;;;;5069069;28;20187;-75
2023/07/06 11:32:04;;;;;;;3.88;3.78;;;32.80;61.70;;;;;;5066205;28;20171;-75
2023/07/06 11:35:07;;;;;;;3.97;3.67;;;33.50;61.20;;;;;;5076257;28;20182;-76
2023/07/06 11:37:38;;;;;;;3.78;2.97;;;34.20;60.80;;;;;;5051379;28;20188;-74
2023/07/06 11:40:15;;;;;;;3.53;3.33;;;35.10;59.40;;;;;;5046994;28;20572;-76
2023/07/06 11:42:53;;;;;;;3.67;3.38;;;35.50;59.50;;;;;;5048734;28;20633;-76
2023/07/06 11:45:33;;;;;;;4.47;3.03;;;35.30;57.40;;;;;;5068020;28;20208;-75
2023/07/06 11:48:27;;;;;;;3.42;3.28;;;35.00;58.90;;;;;;5071032;28;20194;-75
2023/07/06 11:50:54;;;;;;;3.38;3.00;;;35.20;60.20;;;;;;5032137;28;20187;-76
2023/07/06 11:53:42;;;;;;;2.53;2.42;;;35.30;60.30;;;;;;5071047;28;20616;-74
2023/07/06 11:56:39;;;;;;;2.33;2.33;;;35.50;62.20;;;;;;5053663;28;20178;-75
2023/07/06 11:59:25;;;;;;;4.10;2.67;;;35.90;58.20;;;;;;5066305;28;20185;-75
2023/07/06 12:02:00;;;;;;;3.00;2.90;;;36.10;61.30;;;;;;5052229;28;20269;-76
2023/07/06 12:04:29;;;;;;;2.13;2.03;;;35.90;60.00;;;;;;5067884;28;20182;-76
2023/07/06 12:06:57;;;;;;;1.80;1.80;;;34.80;59.10;;;;;;5050569;28;20216;-76
2023/07/06 12:09:24;;;;;;;2.08;1.63;;;33.60;59.80;;;;;;5066512;28;20186;-75
2023/07/06 12:12:05;;;;;;;1.83;1.73;;;32.40;63.40;;;;;;5051132;28;20186;-75
2023/07/06 12:14:34;;;;;;;5.35;1.40;;;31.20;63.20;;;;;;5064796;28;20194;-75
2023/07/06 12:17:01;;;;;;;2.03;2.00;;;30.50;65.40;;;;;;5065873;28;20173;-75
2023/07/06 12:19:28;;;;;;;1.98;1.88;;;29.60;66.70;;;;;;5065900;28;20190;-75
2023/07/06 12:21:56;;;;;;;2.30;2.15;;;28.30;70.00;;;;;;5065251;28;20306;-75
2023/07/06 12:24:25;;;;;;;2.75;1.73;;;27.60;71.60;;;;;;5047205;28;20206;-74
2023/07/06 12:26:56;;;;;;;1.92;1.83;;;27.20;74.00;;;;;;5068525;28;20191;-75
2023/07/06 12:29:24;;;;;;;2.03;1.98;;;27.20;74.00;;;;;;5080236;28;20183;-73
2023/07/06 12:31:51;;;;;;;1.48;1.48;;;27.10;73.40;;;;;;5072086;28;20179;-73
2023/07/06 12:34:19;;;;;;;1.73;1.63;;;26.30;73.60;;;;;;5069075;28;20424;-73
2023/07/06 12:36:49;;;;;;;1.33;1.33;;;25.90;75.00;;;;;;5069363;28;20185;-72
2023/07/06 12:39:18;;;;;;;2.38;2.17;;;25.80;75.30;;;;;;5068216;28;20429;-72
2023/07/06 12:41:45;;;;;;;3.00;2.22;;;25.70;77.30;;;;;;5063948;28;20486;-73
2023/07/06 12:44:17;;;;;;;4.30;2.00;;;25.00;79.10;;;;;;5071851;28;20224;-72
2023/07/06 12:47:01;;;;;;;3.28;1.92;;;24.30;84.80;;;;;;5055994;28;20196;-72
2023/07/06 12:49:29;;;;;;;11.83;3.70;;;24.10;85.40;;;;;;5049541;28;20477;-72
2023/07/06 12:51:57;;;;;;;3.23;2.40;;;23.90;85.10;;;;;;5068403;28;20433;-72
2023/07/06 12:54:28;;;;;;;5.13;2.17;;;23.70;86.00;;;;;;5069217;28;20451;-71
2023/07/06 12:57:02;;;;;;;2.80;1.95;;;23.30;85.80;;;;;;5064161;28;20421;-72
2023/07/06 12:59:33;;;;;;;2.85;1.55;;;22.90;85.90;;;;;;5063724;28;20217;-72
2023/07/06 13:02:16;;;;;;;2.30;1.30;;;22.60;88.70;;;;;;5067071;28;20604;-72
2023/07/06 13:04:45;;;;;;;1.30;1.20;;;22.40;87.20;;;;;;5068145;28;20179;-72
2023/07/06 13:07:14;;;;;;;1.52;1.42;;;22.20;88.70;;;;;;5049161;28;20690;-71
2023/07/06 13:09:41;;;;;;;1.08;0.98;;;22.10;90.10;;;;;;5068399;28;20269;-69
2023/07/06 13:12:09;;;;;;;1.50;1.38;;;22.00;89.90;;;;;;5065821;28;20193;-71
2023/07/06 13:14:39;;;;;;;2.05;1.67;;;21.90;91.80;;;;;;5063496;28;20176;-71
2023/07/06 13:17:16;;;;;;;1.77;1.67;;;21.90;91.80;;;;;;5068609;28;20243;-71
2023/07/06 13:19:44;;;;;;;1.38;1.27;;;21.70;93.10;;;;;;5066732;28;20206;-70
2023/07/06 13:22:11;;;;;;;1.15;1.15;;;21.10;94.10;;;;;;5065937;28;20175;-71
2023/07/06 13:24:40;;;;;;;3.60;1.45;;;21.00;93.70;;;;;;5065922;28;20250;-69